sensor_id;sensor_type;location;lat;lon;timestamp;temperature;humidity
56761;DHT22;42633;44.494;11.356;2022-09-29T00:00:13;17.20;99.90
56761;DHT22;42633;44.494;11.356;2022-09-29T00:03:18;17.20;99.90
56761;DHT22;42633;44.494;11.356;2022-09-29T00:06:23;17.10;99.90
56761;DHT22;42633;44.494;11.356;2022-09-29T00:09:28;17.10;99.90
56761;DHT22;42633;44.494;11.356;2022-09-29T00:12:32;17.00;99.90
56761;DHT22;42633;44.494;11.356;2022-09-29T00:15:36;17.00;99.90
56761;DHT22;42633;44.494;11.356;2022-09-29T00:18:41;17.00;99.90
56761;DHT22;42633;44.494;11.356;2022-09-29T00:21:45;16.90;99.90
56761;DHT22;42633;44.494;11.356;2022-09-29T00:24:49;16.90;99.90
56761;DHT22;42633;44.494;11.356;2022-09-29T00:27:53;16.80;99.90
56761;DHT22;42633;44.494;11.356;2022-09-29T00:30:58;16.80;99.90
56761;DHT22;42633;44.494;11.356;2022-09-29T00:34:04;16.80;99.90
56761;DHT22;42633;44.494;11.356;2022-09-29T00:37:08;16.80;99.90
56761;DHT22;42633;44.494;11.356;2022-09-29T00:40:12;16.80;99.90
56761;DHT22;42633;44.494;11.356;2022-09-29T00:47:00;16.80;99.90
56761;DHT22;42633;44.494;11.356;2022-09-29T00:53:30;16.70;99.90
56761;DHT22;42633;44.494;11.356;2022-09-29T00:56:38;16.70;99.90
56761;DHT22;42633;44.494;11.356;2022-09-29T01:00:07;16.70;99.90
56761;DHT22;42633;44.494;11.356;2022-09-29T01:03:16;16.70;99.90
56761;DHT22;42633;44.494;11.356;2022-09-29T01:06:30;16.70;99.90
56761;DHT22;42633;44.494;11.356;2022-09-29T01:09:38;16.70;99.90
56761;DHT22;42633;44.494;11.356;2022-09-29T01:12:44;16.70;99.90
56761;DHT22;42633;44.494;11.356;2022-09-29T01:15:48;16.60;99.90
56761;DHT22;42633;44.494;11.356;2022-09-29T01:18:53;16.60;99.90
56761;DHT22;42633;44.494;11.356;2022-09-29T01:22:06;16.60;99.90
56761;DHT22;42633;44.494;11.356;2022-09-29T01:42:54;16.40;99.90
56761;DHT22;42633;44.494;11.356;2022-09-29T01:46:21;16.30;99.90
56761;DHT22;42633;44.494;11.356;2022-09-29T01:49:30;16.30;99.90
56761;DHT22;42633;44.494;11.356;2022-09-29T01:52:36;16.30;99.90
56761;DHT22;42633;44.494;11.356;2022-09-29T01:55:43;16.30;99.90
56761;DHT22;42633;44.494;11.356;2022-09-29T01:59:03;16.30;99.90
56761;DHT22;42633;44.494;11.356;2022-09-29T02:02:17;16.30;99.90
56761;DHT22;42633;44.494;11.356;2022-09-29T02:08:54;16.30;99.90
56761;DHT22;42633;44.494;11.356;2022-09-29T02:12:00;16.30;99.90
56761;DHT22;42633;44.494;11.356;2022-09-29T02:15:07;16.30;99.90
56761;DHT22;42633;44.494;11.356;2022-09-29T02:18:21;16.30;99.90
56761;DHT22;42633;44.494;11.356;2022-09-29T02:21:26;16.30;99.90
56761;DHT22;42633;44.494;11.356;2022-09-29T02:24:31;16.30;99.90
56761;DHT22;42633;44.494;11.356;2022-09-29T02:27:55;16.30;99.90
56761;DHT22;42633;44.494;11.356;2022-09-29T02:31:00;16.30;99.90
56761;DHT22;42633;44.494;11.356;2022-09-29T02:34:11;16.30;99.90
56761;DHT22;42633;44.494;11.356;2022-09-29T02:40:40;16.40;99.90
56761;DHT22;42633;44.494;11.356;2022-09-29T02:44:06;16.40;99.90
56761;DHT22;42633;44.494;11.356;2022-09-29T02:51:30;16.40;99.90
56761;DHT22;42633;44.494;11.356;2022-09-29T02:59:09;16.50;99.90
56761;DHT22;42633;44.494;11.356;2022-09-29T03:01:55;16.50;99.90
56761;DHT22;42633;44.494;11.356;2022-09-29T03:05:01;16.50;99.90
56761;DHT22;42633;44.494;11.356;2022-09-29T03:08:06;16.50;99.90
56761;DHT22;42633;44.494;11.356;2022-09-29T03:11:10;16.50;99.90
56761;DHT22;42633;44.494;11.356;2022-09-29T03:14:14;16.50;99.90
56761;DHT22;42633;44.494;11.356;2022-09-29T03:17:18;16.50;99.90
56761;DHT22;42633;44.494;11.356;2022-09-29T03:20:23;16.50;99.90
56761;DHT22;42633;44.494;11.356;2022-09-29T03:23:27;16.40;99.90
56761;DHT22;42633;44.494;11.356;2022-09-29T03:26:30;16.50;99.90
56761;DHT22;42633;44.494;11.356;2022-09-29T03:29:35;16.40;99.90
56761;DHT22;42633;44.494;11.356;2022-09-29T03:32:39;16.50;99.90
56761;DHT22;42633;44.494;11.356;2022-09-29T03:35:44;16.40;99.90
56761;DHT22;42633;44.494;11.356;2022-09-29T03:38:48;16.40;99.90
56761;DHT22;42633;44.494;11.356;2022-09-29T03:41:52;16.40;99.90
56761;DHT22;42633;44.494;11.356;2022-09-29T03:44:56;16.30;99.90
56761;DHT22;42633;44.494;11.356;2022-09-29T03:48:00;16.30;99.90
56761;DHT22;42633;44.494;11.356;2022-09-29T03:51:04;16.30;99.90
56761;DHT22;42633;44.494;11.356;2022-09-29T03:54:09;16.20;99.90
56761;DHT22;42633;44.494;11.356;2022-09-29T03:57:13;16.20;99.90
56761;DHT22;42633;44.494;11.356;2022-09-29T04:00:18;16.20;99.90
56761;DHT22;42633;44.494;11.356;2022-09-29T04:03:22;16.20;99.90
56761;DHT22;42633;44.494;11.356;2022-09-29T04:06:26;16.20;99.90
56761;DHT22;42633;44.494;11.356;2022-09-29T04:09:30;16.20;99.90
56761;DHT22;42633;44.494;11.356;2022-09-29T04:12:34;16.20;99.90
56761;DHT22;42633;44.494;11.356;2022-09-29T04:15:38;16.20;99.90
56761;DHT22;42633;44.494;11.356;2022-09-29T04:18:42;16.20;99.90
56761;DHT22;42633;44.494;11.356;2022-09-29T04:21:46;16.20;99.90
56761;DHT22;42633;44.494;11.356;2022-09-29T04:24:50;16.20;99.90
56761;DHT22;42633;44.494;11.356;2022-09-29T04:27:55;16.10;99.90
56761;DHT22;42633;44.494;11.356;2022-09-29T04:30:59;16.10;99.90
56761;DHT22;42633;44.494;11.356;2022-09-29T04:34:03;16.10;99.90
56761;DHT22;42633;44.494;11.356;2022-09-29T04:37:08;16.10;99.90
56761;DHT22;42633;44.494;11.356;2022-09-29T04:40:14;16.10;99.90
56761;DHT22;42633;44.494;11.356;2022-09-29T04:43:19;16.10;99.90
56761;DHT22;42633;44.494;11.356;2022-09-29T04:46:23;16.00;99.90
56761;DHT22;42633;44.494;11.356;2022-09-29T04:49:27;16.10;99.90
56761;DHT22;42633;44.494;11.356;2022-09-29T04:52:32;16.10;99.90
56761;DHT22;42633;44.494;11.356;2022-09-29T04:55:37;16.10;99.90
56761;DHT22;42633;44.494;11.356;2022-09-29T04:58:41;16.10;99.90
56761;DHT22;42633;44.494;11.356;2022-09-29T05:01:47;16.10;99.90
56761;DHT22;42633;44.494;11.356;2022-09-29T05:04:51;16.00;99.90
56761;DHT22;42633;44.494;11.356;2022-09-29T05:07:55;16.00;99.90
56761;DHT22;42633;44.494;11.356;2022-09-29T05:11:05;16.00;99.90
56761;DHT22;42633;44.494;11.356;2022-09-29T05:14:10;15.90;99.90
56761;DHT22;42633;44.494;11.356;2022-09-29T05:17:14;15.90;99.90
56761;DHT22;42633;44.494;11.356;2022-09-29T05:20:17;15.90;99.90
56761;DHT22;42633;44.494;11.356;2022-09-29T05:23:22;15.90;99.90
56761;DHT22;42633;44.494;11.356;2022-09-29T05:26:26;15.90;99.90
56761;DHT22;42633;44.494;11.356;2022-09-29T05:29:30;15.90;99.90
56761;DHT22;42633;44.494;11.356;2022-09-29T05:32:34;15.90;99.90
56761;DHT22;42633;44.494;11.356;2022-09-29T05:35:38;15.90;99.90
56761;DHT22;42633;44.494;11.356;2022-09-29T05:38:42;15.90;99.90
56761;DHT22;42633;44.494;11.356;2022-09-29T05:41:47;16.00;99.90
56761;DHT22;42633;44.494;11.356;2022-09-29T05:44:52;16.00;99.90
56761;DHT22;42633;44.494;11.356;2022-09-29T05:47:56;15.90;99.90
56761;DHT22;42633;44.494;11.356;2022-09-29T05:51:07;15.90;99.90
56761;DHT22;42633;44.494;11.356;2022-09-29T05:54:11;16.00;99.90
56761;DHT22;42633;44.494;11.356;2022-09-29T05:57:15;16.00;99.90
56761;DHT22;42633;44.494;11.356;2022-09-29T06:00:19;16.10;99.90
56761;DHT22;42633;44.494;11.356;2022-09-29T06:03:23;16.10;99.90
56761;DHT22;42633;44.494;11.356;2022-09-29T06:06:28;16.20;99.90
56761;DHT22;42633;44.494;11.356;2022-09-29T06:09:33;16.20;99.90
56761;DHT22;42633;44.494;11.356;2022-09-29T06:12:38;16.30;99.90
56761;DHT22;42633;44.494;11.356;2022-09-29T06:15:43;16.40;99.90
56761;DHT22;42633;44.494;11.356;2022-09-29T06:18:47;16.30;99.90
56761;DHT22;42633;44.494;11.356;2022-09-29T06:21:51;16.30;99.90
56761;DHT22;42633;44.494;11.356;2022-09-29T06:24:56;16.40;99.90
56761;DHT22;42633;44.494;11.356;2022-09-29T06:28:00;16.50;99.90
56761;DHT22;42633;44.494;11.356;2022-09-29T06:31:06;16.50;99.90
56761;DHT22;42633;44.494;11.356;2022-09-29T06:34:12;16.60;99.90
56761;DHT22;42633;44.494;11.356;2022-09-29T06:37:16;16.70;99.90
56761;DHT22;42633;44.494;11.356;2022-09-29T06:40:38;16.70;99.90
56761;DHT22;42633;44.494;11.356;2022-09-29T06:43:42;16.90;99.90
56761;DHT22;42633;44.494;11.356;2022-09-29T06:46:47;17.10;99.90
56761;DHT22;42633;44.494;11.356;2022-09-29T06:49:56;17.40;99.90
56761;DHT22;42633;44.494;11.356;2022-09-29T06:53:05;17.40;99.90
56761;DHT22;42633;44.494;11.356;2022-09-29T06:56:11;17.40;99.90
56761;DHT22;42633;44.494;11.356;2022-09-29T06:59:17;17.40;99.90
56761;DHT22;42633;44.494;11.356;2022-09-29T07:02:22;17.60;99.90
56761;DHT22;42633;44.494;11.356;2022-09-29T07:05:27;17.90;99.90
56761;DHT22;42633;44.494;11.356;2022-09-29T07:08:33;18.30;99.90
56761;DHT22;42633;44.494;11.356;2022-09-29T07:11:49;18.50;99.90
56761;DHT22;42633;44.494;11.356;2022-09-29T07:14:54;18.90;99.90
56761;DHT22;42633;44.494;11.356;2022-09-29T07:17:58;19.20;99.90
56761;DHT22;42633;44.494;11.356;2022-09-29T07:21:05;19.30;99.90
56761;DHT22;42633;44.494;11.356;2022-09-29T07:24:10;19.40;99.90
56761;DHT22;42633;44.494;11.356;2022-09-29T07:27:14;19.50;99.90
56761;DHT22;42633;44.494;11.356;2022-09-29T07:30:18;19.50;99.90
56761;DHT22;42633;44.494;11.356;2022-09-29T07:33:21;19.70;99.90
56761;DHT22;42633;44.494;11.356;2022-09-29T07:36:26;19.50;99.90
56761;DHT22;42633;44.494;11.356;2022-09-29T07:39:31;19.40;99.90
56761;DHT22;42633;44.494;11.356;2022-09-29T07:42:35;19.20;99.90
56761;DHT22;42633;44.494;11.356;2022-09-29T07:45:45;19.30;99.90
56761;DHT22;42633;44.494;11.356;2022-09-29T07:48:48;19.40;99.90
56761;DHT22;42633;44.494;11.356;2022-09-29T07:51:53;19.40;99.90
56761;DHT22;42633;44.494;11.356;2022-09-29T07:54:57;19.70;99.90
56761;DHT22;42633;44.494;11.356;2022-09-29T07:58:01;19.80;99.90
56761;DHT22;42633;44.494;11.356;2022-09-29T08:01:08;19.70;99.90
56761;DHT22;42633;44.494;11.356;2022-09-29T08:04:14;19.50;99.90
56761;DHT22;42633;44.494;11.356;2022-09-29T08:07:22;19.40;99.90
56761;DHT22;42633;44.494;11.356;2022-09-29T08:10:29;19.40;99.90
56761;DHT22;42633;44.494;11.356;2022-09-29T08:13:34;19.40;99.90
56761;DHT22;42633;44.494;11.356;2022-09-29T08:16:39;19.40;99.90
56761;DHT22;42633;44.494;11.356;2022-09-29T08:19:43;19.40;99.90
56761;DHT22;42633;44.494;11.356;2022-09-29T08:22:47;19.40;99.90
56761;DHT22;42633;44.494;11.356;2022-09-29T08:26:06;19.40;99.90
56761;DHT22;42633;44.494;11.356;2022-09-29T08:29:19;19.50;99.90
56761;DHT22;42633;44.494;11.356;2022-09-29T08:32:23;19.60;99.90
56761;DHT22;42633;44.494;11.356;2022-09-29T08:35:28;19.90;99.90
56761;DHT22;42633;44.494;11.356;2022-09-29T08:38:33;20.20;99.90
56761;DHT22;42633;44.494;11.356;2022-09-29T08:42:10;20.40;99.90
56761;DHT22;42633;44.494;11.356;2022-09-29T08:45:46;20.60;99.90
56761;DHT22;42633;44.494;11.356;2022-09-29T08:49:12;20.90;99.90
56761;DHT22;42633;44.494;11.356;2022-09-29T08:52:52;21.10;99.90
56761;DHT22;42633;44.494;11.356;2022-09-29T08:56:14;21.30;99.90
56761;DHT22;42633;44.494;11.356;2022-09-29T08:59:20;21.50;98.80
56761;DHT22;42633;44.494;11.356;2022-09-29T09:06:11;21.70;97.80
56761;DHT22;42633;44.494;11.356;2022-09-29T09:13:02;21.90;96.70
56761;DHT22;42633;44.494;11.356;2022-09-29T09:23:04;21.90;95.80
56761;DHT22;42633;44.494;11.356;2022-09-29T09:26:11;22.00;95.40
56761;DHT22;42633;44.494;11.356;2022-09-29T09:29:34;22.00;95.00
56761;DHT22;42633;44.494;11.356;2022-09-29T09:32:55;22.20;95.20
56761;DHT22;42633;44.494;11.356;2022-09-29T09:36:10;22.30;94.80
56761;DHT22;42633;44.494;11.356;2022-09-29T09:39:27;22.40;94.40
56761;DHT22;42633;44.494;11.356;2022-09-29T09:42:37;22.60;94.10
56761;DHT22;42633;44.494;11.356;2022-09-29T09:46:02;22.80;93.80
56761;DHT22;42633;44.494;11.356;2022-09-29T09:52:44;23.00;93.10
56761;DHT22;42633;44.494;11.356;2022-09-29T09:55:58;23.00;92.90
56761;DHT22;42633;44.494;11.356;2022-09-29T10:02:25;23.10;92.70
56761;DHT22;42633;44.494;11.356;2022-09-29T10:05:43;23.10;92.50
56761;DHT22;42633;44.494;11.356;2022-09-29T10:08:54;23.10;92.30
56761;DHT22;42633;44.494;11.356;2022-09-29T10:11:59;23.10;92.10
56761;DHT22;42633;44.494;11.356;2022-09-29T10:15:21;23.10;92.10
56761;DHT22;42633;44.494;11.356;2022-09-29T10:18:40;23.00;92.10
56761;DHT22;42633;44.494;11.356;2022-09-29T10:22:12;23.10;92.10
56761;DHT22;42633;44.494;11.356;2022-09-29T10:25:31;23.00;92.10
56761;DHT22;42633;44.494;11.356;2022-09-29T10:29:03;23.00;92.00
56761;DHT22;42633;44.494;11.356;2022-09-29T10:32:33;23.00;91.70
56761;DHT22;42633;44.494;11.356;2022-09-29T10:35:49;23.10;91.60
56761;DHT22;42633;44.494;11.356;2022-09-29T10:39:44;23.20;91.40
56761;DHT22;42633;44.494;11.356;2022-09-29T10:42:56;23.30;91.10
56761;DHT22;42633;44.494;11.356;2022-09-29T10:46:02;23.30;90.90
56761;DHT22;42633;44.494;11.356;2022-09-29T10:49:21;23.40;90.60
56761;DHT22;42633;44.494;11.356;2022-09-29T10:52:28;23.50;90.10
56761;DHT22;42633;44.494;11.356;2022-09-29T10:55:34;23.40;88.80
56761;DHT22;42633;44.494;11.356;2022-09-29T10:58:40;23.40;89.10
56761;DHT22;42633;44.494;11.356;2022-09-29T11:01:54;23.40;88.70
56761;DHT22;42633;44.494;11.356;2022-09-29T11:05:36;23.50;87.60
56761;DHT22;42633;44.494;11.356;2022-09-29T11:09:06;24.00;86.30
56761;DHT22;42633;44.494;11.356;2022-09-29T11:15:39;24.90;82.20
56761;DHT22;42633;44.494;11.356;2022-09-29T11:19:03;24.90;82.30
56761;DHT22;42633;44.494;11.356;2022-09-29T11:43:52;25.50;76.00
56761;DHT22;42633;44.494;11.356;2022-09-29T11:50:22;25.70;74.90
56761;DHT22;42633;44.494;11.356;2022-09-29T11:57:08;26.10;74.00
56761;DHT22;42633;44.494;11.356;2022-09-29T12:00:15;25.80;73.70
56761;DHT22;42633;44.494;11.356;2022-09-29T12:06:55;26.10;72.70
56761;DHT22;42633;44.494;11.356;2022-09-29T12:10:11;26.10;72.80
56761;DHT22;42633;44.494;11.356;2022-09-29T12:16:57;26.10;72.70
56761;DHT22;42633;44.494;11.356;2022-09-29T12:23:22;26.10;72.80
56761;DHT22;42633;44.494;11.356;2022-09-29T12:26:27;25.90;72.00
56761;DHT22;42633;44.494;11.356;2022-09-29T12:29:42;25.80;71.90
56761;DHT22;42633;44.494;11.356;2022-09-29T12:32:58;25.90;72.90
56761;DHT22;42633;44.494;11.356;2022-09-29T12:54:37;25.60;71.00
56761;DHT22;42633;44.494;11.356;2022-09-29T12:57:47;25.80;71.00
56761;DHT22;42633;44.494;11.356;2022-09-29T13:01:00;26.10;70.60
56761;DHT22;42633;44.494;11.356;2022-09-29T13:04:17;26.70;69.60
56761;DHT22;42633;44.494;11.356;2022-09-29T13:27:44;25.40;70.30
56761;DHT22;42633;44.494;11.356;2022-09-29T13:30:49;25.30;70.00
56761;DHT22;42633;44.494;11.356;2022-09-29T13:33:55;25.30;70.40
56761;DHT22;42633;44.494;11.356;2022-09-29T13:37:07;25.30;71.00
56761;DHT22;42633;44.494;11.356;2022-09-29T13:40:20;25.20;70.20
56761;DHT22;42633;44.494;11.356;2022-09-29T13:43:39;25.20;70.60
56761;DHT22;42633;44.494;11.356;2022-09-29T13:46:43;25.10;70.80
56761;DHT22;42633;44.494;11.356;2022-09-29T13:49:47;25.00;71.10
56761;DHT22;42633;44.494;11.356;2022-09-29T13:52:52;24.80;71.90
56761;DHT22;42633;44.494;11.356;2022-09-29T13:59:13;24.30;73.50
56761;DHT22;42633;44.494;11.356;2022-09-29T14:02:34;24.20;74.00
56761;DHT22;42633;44.494;11.356;2022-09-29T14:05:44;24.30;73.40
56761;DHT22;42633;44.494;11.356;2022-09-29T14:08:50;24.40;73.40
56761;DHT22;42633;44.494;11.356;2022-09-29T14:11:56;24.50;73.60
56761;DHT22;42633;44.494;11.356;2022-09-29T14:15:01;24.50;73.50
56761;DHT22;42633;44.494;11.356;2022-09-29T14:18:30;24.70;72.80
56761;DHT22;42633;44.494;11.356;2022-09-29T14:21:56;24.60;72.80
56761;DHT22;42633;44.494;11.356;2022-09-29T14:28:15;24.70;72.40
56761;DHT22;42633;44.494;11.356;2022-09-29T14:31:22;24.50;72.60
56761;DHT22;42633;44.494;11.356;2022-09-29T14:34:33;24.40;72.50
56761;DHT22;42633;44.494;11.356;2022-09-29T14:37:47;24.30;72.70
56761;DHT22;42633;44.494;11.356;2022-09-29T14:44:38;24.20;73.10
56761;DHT22;42633;44.494;11.356;2022-09-29T14:48:19;24.20;72.70
56761;DHT22;42633;44.494;11.356;2022-09-29T14:52:08;24.00;73.20
56761;DHT22;42633;44.494;11.356;2022-09-29T14:55:57;23.90;73.50
56761;DHT22;42633;44.494;11.356;2022-09-29T14:59:56;23.90;73.80
56761;DHT22;42633;44.494;11.356;2022-09-29T15:03:29;23.90;74.10
56761;DHT22;42633;44.494;11.356;2022-09-29T15:06:50;23.80;74.20
56761;DHT22;42633;44.494;11.356;2022-09-29T15:10:39;23.80;73.60
56761;DHT22;42633;44.494;11.356;2022-09-29T15:13:49;23.70;73.80
56761;DHT22;42633;44.494;11.356;2022-09-29T15:17:53;23.60;74.50
56761;DHT22;42633;44.494;11.356;2022-09-29T15:21:41;23.70;74.80
56761;DHT22;42633;44.494;11.356;2022-09-29T15:28:36;23.30;78.90
56761;DHT22;42633;44.494;11.356;2022-09-29T15:31:50;23.20;79.60
56761;DHT22;42633;44.494;11.356;2022-09-29T15:35:12;23.20;80.60
56761;DHT22;42633;44.494;11.356;2022-09-29T15:42:21;22.90;80.20
56761;DHT22;42633;44.494;11.356;2022-09-29T15:45:42;22.80;80.10
56761;DHT22;42633;44.494;11.356;2022-09-29T15:49:24;22.80;80.00
56761;DHT22;42633;44.494;11.356;2022-09-29T15:52:44;22.70;79.60
56761;DHT22;42633;44.494;11.356;2022-09-29T15:56:00;22.60;79.90
56761;DHT22;42633;44.494;11.356;2022-09-29T15:59:47;22.50;80.00
56761;DHT22;42633;44.494;11.356;2022-09-29T16:06:33;22.30;79.40
56761;DHT22;42633;44.494;11.356;2022-09-29T16:09:43;22.30;79.80
56761;DHT22;42633;44.494;11.356;2022-09-29T16:12:52;22.20;78.10
56761;DHT22;42633;44.494;11.356;2022-09-29T16:16:09;22.10;78.80
56761;DHT22;42633;44.494;11.356;2022-09-29T16:19:25;22.10;78.30
56761;DHT22;42633;44.494;11.356;2022-09-29T16:22:31;22.00;78.60
56761;DHT22;42633;44.494;11.356;2022-09-29T16:25:42;21.90;78.50
56761;DHT22;42633;44.494;11.356;2022-09-29T16:32:35;21.80;79.00
56761;DHT22;42633;44.494;11.356;2022-09-29T16:36:03;21.70;79.50
56761;DHT22;42633;44.494;11.356;2022-09-29T16:39:14;21.60;79.90
56761;DHT22;42633;44.494;11.356;2022-09-29T16:42:22;21.60;80.80
56761;DHT22;42633;44.494;11.356;2022-09-29T16:45:29;21.40;81.40
56761;DHT22;42633;44.494;11.356;2022-09-29T16:48:40;21.40;82.00
56761;DHT22;42633;44.494;11.356;2022-09-29T16:51:48;21.30;82.60
56761;DHT22;42633;44.494;11.356;2022-09-29T16:59:12;21.10;83.60
56761;DHT22;42633;44.494;11.356;2022-09-29T17:02:30;21.00;84.30
56761;DHT22;42633;44.494;11.356;2022-09-29T17:05:42;20.90;85.00
56761;DHT22;42633;44.494;11.356;2022-09-29T17:09:02;20.90;85.60
56761;DHT22;42633;44.494;11.356;2022-09-29T17:12:12;20.80;86.00
56761;DHT22;42633;44.494;11.356;2022-09-29T17:15:20;20.70;86.70
56761;DHT22;42633;44.494;11.356;2022-09-29T17:18:30;20.70;86.90
56761;DHT22;42633;44.494;11.356;2022-09-29T17:21:35;20.70;87.20
56761;DHT22;42633;44.494;11.356;2022-09-29T17:24:40;20.70;87.70
56761;DHT22;42633;44.494;11.356;2022-09-29T17:27:47;20.60;88.10
56761;DHT22;42633;44.494;11.356;2022-09-29T17:31:10;20.60;88.70
56761;DHT22;42633;44.494;11.356;2022-09-29T17:34:23;20.60;88.80
56761;DHT22;42633;44.494;11.356;2022-09-29T17:37:32;20.50;89.10
56761;DHT22;42633;44.494;11.356;2022-09-29T17:43:49;20.50;89.60
56761;DHT22;42633;44.494;11.356;2022-09-29T17:46:53;20.50;90.00
56761;DHT22;42633;44.494;11.356;2022-09-29T17:50:16;20.40;90.00
56761;DHT22;42633;44.494;11.356;2022-09-29T17:53:22;20.40;90.10
56761;DHT22;42633;44.494;11.356;2022-09-29T17:56:27;20.40;90.20
56761;DHT22;42633;44.494;11.356;2022-09-29T17:59:36;20.40;90.20
56761;DHT22;42633;44.494;11.356;2022-09-29T18:02:46;20.30;90.30
56761;DHT22;42633;44.494;11.356;2022-09-29T18:10:42;20.30;90.50
56761;DHT22;42633;44.494;11.356;2022-09-29T18:13:53;20.30;90.60
56761;DHT22;42633;44.494;11.356;2022-09-29T18:17:10;20.30;90.70
56761;DHT22;42633;44.494;11.356;2022-09-29T18:20:29;20.30;90.80
56761;DHT22;42633;44.494;11.356;2022-09-29T18:23:35;20.30;90.80
56761;DHT22;42633;44.494;11.356;2022-09-29T18:26:42;20.30;90.80
56761;DHT22;42633;44.494;11.356;2022-09-29T18:29:48;20.30;90.90
56761;DHT22;42633;44.494;11.356;2022-09-29T18:32:56;20.30;90.90
56761;DHT22;42633;44.494;11.356;2022-09-29T18:36:07;20.30;91.00
56761;DHT22;42633;44.494;11.356;2022-09-29T18:39:12;20.30;91.10
56761;DHT22;42633;44.494;11.356;2022-09-29T18:42:19;20.30;91.10
56761;DHT22;42633;44.494;11.356;2022-09-29T18:45:30;20.30;91.20
56761;DHT22;42633;44.494;11.356;2022-09-29T18:48:53;20.30;91.20
56761;DHT22;42633;44.494;11.356;2022-09-29T18:52:26;20.30;91.10
56761;DHT22;42633;44.494;11.356;2022-09-29T18:55:33;20.30;91.10
56761;DHT22;42633;44.494;11.356;2022-09-29T18:58:42;20.30;91.20
56761;DHT22;42633;44.494;11.356;2022-09-29T19:01:48;20.20;91.30
56761;DHT22;42633;44.494;11.356;2022-09-29T19:04:55;20.20;91.30
56761;DHT22;42633;44.494;11.356;2022-09-29T19:08:04;20.20;91.20
56761;DHT22;42633;44.494;11.356;2022-09-29T19:11:17;20.30;91.30
56761;DHT22;42633;44.494;11.356;2022-09-29T19:14:27;20.20;91.30
56761;DHT22;42633;44.494;11.356;2022-09-29T19:17:36;20.20;91.30
56761;DHT22;42633;44.494;11.356;2022-09-29T19:20:54;20.20;91.40
56761;DHT22;42633;44.494;11.356;2022-09-29T19:23:59;20.20;91.50
56761;DHT22;42633;44.494;11.356;2022-09-29T19:27:03;20.20;91.60
56761;DHT22;42633;44.494;11.356;2022-09-29T19:30:08;20.10;91.80
56761;DHT22;42633;44.494;11.356;2022-09-29T19:33:16;20.10;91.60
56761;DHT22;42633;44.494;11.356;2022-09-29T19:36:21;20.10;91.60
56761;DHT22;42633;44.494;11.356;2022-09-29T19:39:26;20.10;91.50
56761;DHT22;42633;44.494;11.356;2022-09-29T19:42:34;20.10;91.70
56761;DHT22;42633;44.494;11.356;2022-09-29T19:45:39;20.00;91.70
56761;DHT22;42633;44.494;11.356;2022-09-29T19:48:43;20.00;91.70
56761;DHT22;42633;44.494;11.356;2022-09-29T19:51:47;20.00;91.70
56761;DHT22;42633;44.494;11.356;2022-09-29T19:55:00;20.00;91.70
56761;DHT22;42633;44.494;11.356;2022-09-29T19:58:09;20.00;91.80
56761;DHT22;42633;44.494;11.356;2022-09-29T20:01:13;20.00;91.80
56761;DHT22;42633;44.494;11.356;2022-09-29T20:04:18;20.00;91.80
56761;DHT22;42633;44.494;11.356;2022-09-29T20:07:22;20.10;91.80
56761;DHT22;42633;44.494;11.356;2022-09-29T20:10:27;20.00;91.70
56761;DHT22;42633;44.494;11.356;2022-09-29T20:13:31;20.00;91.60
56761;DHT22;42633;44.494;11.356;2022-09-29T20:16:37;20.00;91.70
56761;DHT22;42633;44.494;11.356;2022-09-29T20:19:44;20.00;91.70
56761;DHT22;42633;44.494;11.356;2022-09-29T20:22:50;20.00;91.70
56761;DHT22;42633;44.494;11.356;2022-09-29T20:26:00;20.00;91.80
56761;DHT22;42633;44.494;11.356;2022-09-29T20:29:05;20.00;91.90
56761;DHT22;42633;44.494;11.356;2022-09-29T20:32:09;19.90;92.00
56761;DHT22;42633;44.494;11.356;2022-09-29T20:35:13;19.90;92.20
56761;DHT22;42633;44.494;11.356;2022-09-29T20:38:17;19.90;92.10
56761;DHT22;42633;44.494;11.356;2022-09-29T20:41:22;19.90;92.50
56761;DHT22;42633;44.494;11.356;2022-09-29T20:44:26;19.80;92.50
56761;DHT22;42633;44.494;11.356;2022-09-29T20:47:31;19.80;92.40
56761;DHT22;42633;44.494;11.356;2022-09-29T20:50:36;19.80;92.60
56761;DHT22;42633;44.494;11.356;2022-09-29T20:53:41;19.80;92.80
56761;DHT22;42633;44.494;11.356;2022-09-29T20:56:46;19.80;92.80
56761;DHT22;42633;44.494;11.356;2022-09-29T20:59:50;19.70;92.70
56761;DHT22;42633;44.494;11.356;2022-09-29T21:02:54;19.70;92.80
56761;DHT22;42633;44.494;11.356;2022-09-29T21:05:58;19.70;93.00
56761;DHT22;42633;44.494;11.356;2022-09-29T21:09:04;19.60;93.20
56761;DHT22;42633;44.494;11.356;2022-09-29T21:12:08;19.60;93.40
56761;DHT22;42633;44.494;11.356;2022-09-29T21:15:12;19.60;93.40
56761;DHT22;42633;44.494;11.356;2022-09-29T21:18:16;19.60;93.50
56761;DHT22;42633;44.494;11.356;2022-09-29T21:21:43;19.60;93.60
56761;DHT22;42633;44.494;11.356;2022-09-29T21:25:17;19.50;93.70
56761;DHT22;42633;44.494;11.356;2022-09-29T21:28:23;19.50;93.80
56761;DHT22;42633;44.494;11.356;2022-09-29T21:31:32;19.40;93.80
56761;DHT22;42633;44.494;11.356;2022-09-29T21:34:36;19.40;94.00
56761;DHT22;42633;44.494;11.356;2022-09-29T21:38:00;19.40;94.10
56761;DHT22;42633;44.494;11.356;2022-09-29T21:41:18;19.30;94.00
56761;DHT22;42633;44.494;11.356;2022-09-29T21:44:32;19.30;94.20
56761;DHT22;42633;44.494;11.356;2022-09-29T21:47:45;19.30;94.20
56761;DHT22;42633;44.494;11.356;2022-09-29T21:51:10;19.30;94.20
56761;DHT22;42633;44.494;11.356;2022-09-29T21:54:35;19.20;94.40
56761;DHT22;42633;44.494;11.356;2022-09-29T21:58:04;19.20;94.40
56761;DHT22;42633;44.494;11.356;2022-09-29T22:01:32;19.20;94.50
56761;DHT22;42633;44.494;11.356;2022-09-29T22:04:40;19.20;94.50
56761;DHT22;42633;44.494;11.356;2022-09-29T22:07:50;19.20;94.50
56761;DHT22;42633;44.494;11.356;2022-09-29T22:11:20;19.20;94.60
56761;DHT22;42633;44.494;11.356;2022-09-29T22:14:26;19.20;94.60
56761;DHT22;42633;44.494;11.356;2022-09-29T22:17:42;19.20;94.70
56761;DHT22;42633;44.494;11.356;2022-09-29T22:21:03;19.20;94.80
56761;DHT22;42633;44.494;11.356;2022-09-29T22:24:30;19.20;94.90
56761;DHT22;42633;44.494;11.356;2022-09-29T22:27:40;19.20;94.80
56761;DHT22;42633;44.494;11.356;2022-09-29T22:31:07;19.20;94.80
56761;DHT22;42633;44.494;11.356;2022-09-29T22:34:20;19.20;95.00
56761;DHT22;42633;44.494;11.356;2022-09-29T22:37:33;19.10;95.10
56761;DHT22;42633;44.494;11.356;2022-09-29T22:40:40;19.10;95.30
56761;DHT22;42633;44.494;11.356;2022-09-29T22:43:55;19.10;95.40